sensor_id;sensor_type;location;lat;lon;timestamp;temperature;humidity
2050;DHT22;8478;49.208;8.806;2023-08-24T00:00:10;21.90;99.90
2050;DHT22;8478;49.208;8.806;2023-08-24T00:02:36;21.90;99.90
2050;DHT22;8478;49.208;8.806;2023-08-24T00:05:03;21.90;99.90
2050;DHT22;8478;49.208;8.806;2023-08-24T00:07:29;21.90;99.90
2050;DHT22;8478;49.208;8.806;2023-08-24T00:09:55;21.80;99.90
2050;DHT22;8478;49.208;8.806;2023-08-24T00:12:21;21.80;99.90
2050;DHT22;8478;49.208;8.806;2023-08-24T00:14:46;21.90;99.90
2050;DHT22;8478;49.208;8.806;2023-08-24T00:17:12;21.80;99.90
2050;DHT22;8478;49.208;8.806;2023-08-24T00:19:38;21.90;99.90
2050;DHT22;8478;49.208;8.806;2023-08-24T00:22:03;21.80;99.90
2050;DHT22;8478;49.208;8.806;2023-08-24T00:24:29;21.80;99.90
2050;DHT22;8478;49.208;8.806;2023-08-24T00:26:55;21.80;99.90
2050;DHT22;8478;49.208;8.806;2023-08-24T00:29:21;21.80;99.90
2050;DHT22;8478;49.208;8.806;2023-08-24T00:31:47;21.80;99.90
2050;DHT22;8478;49.208;8.806;2023-08-24T00:34:13;21.80;99.90
2050;DHT22;8478;49.208;8.806;2023-08-24T00:36:38;21.80;99.90
2050;DHT22;8478;49.208;8.806;2023-08-24T00:39:04;21.80;99.90
2050;DHT22;8478;49.208;8.806;2023-08-24T00:41:30;21.80;99.90
2050;DHT22;8478;49.208;8.806;2023-08-24T00:43:56;21.80;99.90
2050;DHT22;8478;49.208;8.806;2023-08-24T00:46:22;21.80;99.90
2050;DHT22;8478;49.208;8.806;2023-08-24T00:48:48;21.80;99.90
2050;DHT22;8478;49.208;8.806;2023-08-24T00:51:14;21.80;99.90
2050;DHT22;8478;49.208;8.806;2023-08-24T00:53:40;21.80;99.90
2050;DHT22;8478;49.208;8.806;2023-08-24T00:56:06;21.80;99.90
2050;DHT22;8478;49.208;8.806;2023-08-24T00:58:33;21.80;99.90
2050;DHT22;8478;49.208;8.806;2023-08-24T01:00:59;21.80;99.90
2050;DHT22;8478;49.208;8.806;2023-08-24T01:03:24;21.80;99.90
2050;DHT22;8478;49.208;8.806;2023-08-24T01:05:51;21.80;99.90
2050;DHT22;8478;49.208;8.806;2023-08-24T01:08:17;21.80;99.90
2050;DHT22;8478;49.208;8.806;2023-08-24T01:11:04;21.80;99.90
2050;DHT22;8478;49.208;8.806;2023-08-24T01:13:50;21.80;99.90
2050;DHT22;8478;49.208;8.806;2023-08-24T01:16:24;21.70;99.90
2050;DHT22;8478;49.208;8.806;2023-08-24T01:18:57;21.70;99.90
2050;DHT22;8478;49.208;8.806;2023-08-24T01:21:26;21.80;99.90
2050;DHT22;8478;49.208;8.806;2023-08-24T01:24:23;21.70;99.90
2050;DHT22;8478;49.208;8.806;2023-08-24T01:26:53;21.70;99.90
2050;DHT22;8478;49.208;8.806;2023-08-24T01:29:20;21.70;99.90
2050;DHT22;8478;49.208;8.806;2023-08-24T01:31:48;21.70;99.90
2050;DHT22;8478;49.208;8.806;2023-08-24T01:34:15;21.70;99.90
2050;DHT22;8478;49.208;8.806;2023-08-24T01:36:40;21.70;99.90
2050;DHT22;8478;49.208;8.806;2023-08-24T01:39:13;21.70;99.90
2050;DHT22;8478;49.208;8.806;2023-08-24T01:41:42;21.70;99.90
2050;DHT22;8478;49.208;8.806;2023-08-24T01:44:12;21.70;99.90
2050;DHT22;8478;49.208;8.806;2023-08-24T01:46:39;21.70;99.90
2050;DHT22;8478;49.208;8.806;2023-08-24T01:49:06;21.70;99.90
2050;DHT22;8478;49.208;8.806;2023-08-24T01:51:34;21.70;99.90
2050;DHT22;8478;49.208;8.806;2023-08-24T01:54:00;21.70;99.90
2050;DHT22;8478;49.208;8.806;2023-08-24T01:56:26;21.70;99.90
2050;DHT22;8478;49.208;8.806;2023-08-24T01:58:51;21.70;99.90
2050;DHT22;8478;49.208;8.806;2023-08-24T02:01:17;21.70;99.90
2050;DHT22;8478;49.208;8.806;2023-08-24T02:03:43;21.70;99.90
2050;DHT22;8478;49.208;8.806;2023-08-24T02:06:09;21.70;99.90
2050;DHT22;8478;49.208;8.806;2023-08-24T02:08:34;21.70;99.90
2050;DHT22;8478;49.208;8.806;2023-08-24T02:11:00;21.60;99.90
2050;DHT22;8478;49.208;8.806;2023-08-24T02:13:26;21.70;99.90
2050;DHT22;8478;49.208;8.806;2023-08-24T02:16:07;21.70;99.90
2050;DHT22;8478;49.208;8.806;2023-08-24T02:18:34;21.70;99.90
2050;DHT22;8478;49.208;8.806;2023-08-24T02:21:00;21.70;99.90
2050;DHT22;8478;49.208;8.806;2023-08-24T02:23:25;21.70;99.90
2050;DHT22;8478;49.208;8.806;2023-08-24T02:25:51;21.60;99.90
2050;DHT22;8478;49.208;8.806;2023-08-24T02:28:17;21.60;99.90
2050;DHT22;8478;49.208;8.806;2023-08-24T02:30:42;21.60;99.90
2050;DHT22;8478;49.208;8.806;2023-08-24T02:33:08;21.60;99.90
2050;DHT22;8478;49.208;8.806;2023-08-24T02:35:34;21.60;99.90
2050;DHT22;8478;49.208;8.806;2023-08-24T02:38:00;21.60;99.90
2050;DHT22;8478;49.208;8.806;2023-08-24T02:40:25;21.60;99.90
2050;DHT22;8478;49.208;8.806;2023-08-24T02:42:51;21.60;99.90
2050;DHT22;8478;49.208;8.806;2023-08-24T02:45:16;21.60;99.90
2050;DHT22;8478;49.208;8.806;2023-08-24T02:47:42;21.60;99.90
2050;DHT22;8478;49.208;8.806;2023-08-24T02:50:08;21.60;99.90
2050;DHT22;8478;49.208;8.806;2023-08-24T02:52:34;21.60;99.90
2050;DHT22;8478;49.208;8.806;2023-08-24T02:55:00;21.60;99.90
2050;DHT22;8478;49.208;8.806;2023-08-24T02:57:25;21.60;99.90
2050;DHT22;8478;49.208;8.806;2023-08-24T02:59:51;21.60;99.90
2050;DHT22;8478;49.208;8.806;2023-08-24T03:02:16;21.60;99.90
2050;DHT22;8478;49.208;8.806;2023-08-24T03:04:42;21.60;99.90
2050;DHT22;8478;49.208;8.806;2023-08-24T03:07:08;21.60;99.90
2050;DHT22;8478;49.208;8.806;2023-08-24T03:09:35;21.60;99.90
2050;DHT22;8478;49.208;8.806;2023-08-24T03:12:01;21.60;99.90
2050;DHT22;8478;49.208;8.806;2023-08-24T03:14:27;21.60;99.90
2050;DHT22;8478;49.208;8.806;2023-08-24T03:16:53;21.60;99.90
2050;DHT22;8478;49.208;8.806;2023-08-24T03:19:19;21.60;99.90
2050;DHT22;8478;49.208;8.806;2023-08-24T03:21:44;21.60;99.90
2050;DHT22;8478;49.208;8.806;2023-08-24T03:24:10;21.60;99.90
2050;DHT22;8478;49.208;8.806;2023-08-24T03:26:36;21.60;99.90
2050;DHT22;8478;49.208;8.806;2023-08-24T03:29:02;21.50;99.90
2050;DHT22;8478;49.208;8.806;2023-08-24T03:31:27;21.60;99.90
2050;DHT22;8478;49.208;8.806;2023-08-24T03:33:53;21.60;99.90
2050;DHT22;8478;49.208;8.806;2023-08-24T03:36:19;21.60;99.90
2050;DHT22;8478;49.208;8.806;2023-08-24T03:38:44;21.50;99.90
2050;DHT22;8478;49.208;8.806;2023-08-24T03:41:13;21.60;99.90
2050;DHT22;8478;49.208;8.806;2023-08-24T03:43:39;21.60;99.90
2050;DHT22;8478;49.208;8.806;2023-08-24T03:46:04;21.50;99.90
2050;DHT22;8478;49.208;8.806;2023-08-24T03:48:31;21.60;99.90
2050;DHT22;8478;49.208;8.806;2023-08-24T03:50:57;21.50;99.90
2050;DHT22;8478;49.208;8.806;2023-08-24T03:53:24;21.50;99.90
2050;DHT22;8478;49.208;8.806;2023-08-24T03:55:52;21.50;99.90
2050;DHT22;8478;49.208;8.806;2023-08-24T03:58:18;21.50;99.90
2050;DHT22;8478;49.208;8.806;2023-08-24T04:00:44;21.50;99.90
2050;DHT22;8478;49.208;8.806;2023-08-24T04:03:10;21.50;99.90
2050;DHT22;8478;49.208;8.806;2023-08-24T04:05:36;21.50;99.90
2050;DHT22;8478;49.208;8.806;2023-08-24T04:08:02;21.50;99.90
2050;DHT22;8478;49.208;8.806;2023-08-24T04:10:29;21.50;99.90
2050;DHT22;8478;49.208;8.806;2023-08-24T04:12:55;21.50;99.90
2050;DHT22;8478;49.208;8.806;2023-08-24T04:15:21;21.50;99.90
2050;DHT22;8478;49.208;8.806;2023-08-24T04:17:48;21.50;99.90
2050;DHT22;8478;49.208;8.806;2023-08-24T04:20:14;21.50;99.90
2050;DHT22;8478;49.208;8.806;2023-08-24T04:22:40;21.50;99.90
2050;DHT22;8478;49.208;8.806;2023-08-24T04:25:05;21.50;99.90
2050;DHT22;8478;49.208;8.806;2023-08-24T04:27:32;21.50;99.90
2050;DHT22;8478;49.208;8.806;2023-08-24T04:29:58;21.50;99.90
2050;DHT22;8478;49.208;8.806;2023-08-24T04:32:24;21.50;99.90
2050;DHT22;8478;49.208;8.806;2023-08-24T04:34:50;21.50;99.90
2050;DHT22;8478;49.208;8.806;2023-08-24T04:37:15;21.50;99.90
2050;DHT22;8478;49.208;8.806;2023-08-24T04:39:41;21.50;99.90
2050;DHT22;8478;49.208;8.806;2023-08-24T04:42:07;21.50;99.90
2050;DHT22;8478;49.208;8.806;2023-08-24T04:44:33;21.50;99.90
2050;DHT22;8478;49.208;8.806;2023-08-24T04:46:58;21.50;99.90
2050;DHT22;8478;49.208;8.806;2023-08-24T04:49:24;21.50;99.90
2050;DHT22;8478;49.208;8.806;2023-08-24T04:51:50;21.50;99.90
2050;DHT22;8478;49.208;8.806;2023-08-24T04:54:15;21.40;99.90
2050;DHT22;8478;49.208;8.806;2023-08-24T04:56:41;21.50;99.90
2050;DHT22;8478;49.208;8.806;2023-08-24T04:59:07;21.50;99.90
2050;DHT22;8478;49.208;8.806;2023-08-24T05:01:34;21.50;99.90
2050;DHT22;8478;49.208;8.806;2023-08-24T05:04:00;21.50;99.90
2050;DHT22;8478;49.208;8.806;2023-08-24T05:06:26;21.50;99.90
2050;DHT22;8478;49.208;8.806;2023-08-24T05:08:52;21.50;99.90
2050;DHT22;8478;49.208;8.806;2023-08-24T05:11:19;21.40;99.90
2050;DHT22;8478;49.208;8.806;2023-08-24T05:13:46;21.40;99.90
2050;DHT22;8478;49.208;8.806;2023-08-24T05:16:12;21.40;99.90
2050;DHT22;8478;49.208;8.806;2023-08-24T05:18:38;21.40;99.90
2050;DHT22;8478;49.208;8.806;2023-08-24T05:21:04;21.40;99.90
2050;DHT22;8478;49.208;8.806;2023-08-24T05:23:30;21.40;99.90
2050;DHT22;8478;49.208;8.806;2023-08-24T05:25:57;21.40;99.90
2050;DHT22;8478;49.208;8.806;2023-08-24T05:28:27;21.40;99.90
2050;DHT22;8478;49.208;8.806;2023-08-24T05:30:53;21.40;99.90
2050;DHT22;8478;49.208;8.806;2023-08-24T05:33:23;21.40;99.90
2050;DHT22;8478;49.208;8.806;2023-08-24T05:35:49;21.40;99.90
2050;DHT22;8478;49.208;8.806;2023-08-24T05:38:16;21.40;99.90
2050;DHT22;8478;49.208;8.806;2023-08-24T05:40:47;21.40;99.90
2050;DHT22;8478;49.208;8.806;2023-08-24T05:43:13;21.40;99.90
2050;DHT22;8478;49.208;8.806;2023-08-24T05:45:40;21.40;99.90
2050;DHT22;8478;49.208;8.806;2023-08-24T05:48:06;21.40;99.90
2050;DHT22;8478;49.208;8.806;2023-08-24T05:50:33;21.40;99.90
2050;DHT22;8478;49.208;8.806;2023-08-24T05:52:59;21.40;99.90
2050;DHT22;8478;49.208;8.806;2023-08-24T05:55:25;21.40;99.90
2050;DHT22;8478;49.208;8.806;2023-08-24T05:57:50;21.40;99.90
2050;DHT22;8478;49.208;8.806;2023-08-24T06:00:16;21.40;99.90
2050;DHT22;8478;49.208;8.806;2023-08-24T06:02:42;21.40;99.90
2050;DHT22;8478;49.208;8.806;2023-08-24T06:05:08;21.40;99.90
2050;DHT22;8478;49.208;8.806;2023-08-24T06:07:34;21.40;99.90
2050;DHT22;8478;49.208;8.806;2023-08-24T06:10:00;21.40;99.90
2050;DHT22;8478;49.208;8.806;2023-08-24T06:12:26;21.40;99.90
2050;DHT22;8478;49.208;8.806;2023-08-24T06:14:52;21.40;99.90
2050;DHT22;8478;49.208;8.806;2023-08-24T06:17:17;21.40;99.90
2050;DHT22;8478;49.208;8.806;2023-08-24T06:19:43;21.40;99.90
2050;DHT22;8478;49.208;8.806;2023-08-24T06:22:09;21.40;99.90
2050;DHT22;8478;49.208;8.806;2023-08-24T06:24:35;21.40;99.90
2050;DHT22;8478;49.208;8.806;2023-08-24T06:27:01;21.40;99.90
2050;DHT22;8478;49.208;8.806;2023-08-24T06:29:28;21.40;99.90
2050;DHT22;8478;49.208;8.806;2023-08-24T06:31:54;21.40;99.90
2050;DHT22;8478;49.208;8.806;2023-08-24T06:34:21;21.40;99.90
2050;DHT22;8478;49.208;8.806;2023-08-24T06:36:46;21.40;99.90
2050;DHT22;8478;49.208;8.806;2023-08-24T06:39:13;21.40;99.90
2050;DHT22;8478;49.208;8.806;2023-08-24T06:41:38;21.40;99.90
2050;DHT22;8478;49.208;8.806;2023-08-24T06:44:04;21.40;99.90
2050;DHT22;8478;49.208;8.806;2023-08-24T06:46:30;21.40;99.90
2050;DHT22;8478;49.208;8.806;2023-08-24T06:48:55;21.40;99.90
2050;DHT22;8478;49.208;8.806;2023-08-24T06:51:21;21.40;99.90
2050;DHT22;8478;49.208;8.806;2023-08-24T06:53:47;21.40;99.90
2050;DHT22;8478;49.208;8.806;2023-08-24T06:56:14;21.40;99.90
2050;DHT22;8478;49.208;8.806;2023-08-24T06:58:47;21.40;99.90
2050;DHT22;8478;49.208;8.806;2023-08-24T07:01:13;21.40;99.90
2050;DHT22;8478;49.208;8.806;2023-08-24T07:03:39;21.40;99.90
2050;DHT22;8478;49.208;8.806;2023-08-24T07:06:07;21.40;99.90
2050;DHT22;8478;49.208;8.806;2023-08-24T07:08:34;21.40;99.90
2050;DHT22;8478;49.208;8.806;2023-08-24T07:11:01;21.40;99.90
2050;DHT22;8478;49.208;8.806;2023-08-24T07:13:27;21.40;99.90
2050;DHT22;8478;49.208;8.806;2023-08-24T07:15:53;21.40;99.90
2050;DHT22;8478;49.208;8.806;2023-08-24T07:18:18;21.40;99.90
2050;DHT22;8478;49.208;8.806;2023-08-24T07:20:44;21.40;99.90
2050;DHT22;8478;49.208;8.806;2023-08-24T07:23:10;21.40;99.90
2050;DHT22;8478;49.208;8.806;2023-08-24T07:25:35;21.40;99.90
2050;DHT22;8478;49.208;8.806;2023-08-24T07:28:01;21.40;99.90
2050;DHT22;8478;49.208;8.806;2023-08-24T07:30:30;21.40;99.90
2050;DHT22;8478;49.208;8.806;2023-08-24T07:32:55;21.40;99.90
2050;DHT22;8478;49.208;8.806;2023-08-24T07:35:21;21.40;99.90
2050;DHT22;8478;49.208;8.806;2023-08-24T07:37:50;21.40;99.90
2050;DHT22;8478;49.208;8.806;2023-08-24T07:40:16;21.40;99.90
2050;DHT22;8478;49.208;8.806;2023-08-24T07:42:46;21.40;99.90
2050;DHT22;8478;49.208;8.806;2023-08-24T07:45:13;21.40;99.90
2050;DHT22;8478;49.208;8.806;2023-08-24T07:47:40;21.40;99.90
2050;DHT22;8478;49.208;8.806;2023-08-24T07:50:07;21.40;99.90
2050;DHT22;8478;49.208;8.806;2023-08-24T07:52:33;21.40;99.90
2050;DHT22;8478;49.208;8.806;2023-08-24T07:54:59;21.40;99.90
2050;DHT22;8478;49.208;8.806;2023-08-24T07:57:26;21.40;99.90
2050;DHT22;8478;49.208;8.806;2023-08-24T07:59:52;21.40;99.90
2050;DHT22;8478;49.208;8.806;2023-08-24T08:02:18;21.40;99.90
2050;DHT22;8478;49.208;8.806;2023-08-24T08:04:44;21.40;99.90
2050;DHT22;8478;49.208;8.806;2023-08-24T08:07:09;21.40;99.90
2050;DHT22;8478;49.208;8.806;2023-08-24T08:09:36;21.40;99.90
2050;DHT22;8478;49.208;8.806;2023-08-24T08:12:02;21.40;99.90
2050;DHT22;8478;49.208;8.806;2023-08-24T08:14:29;21.40;99.90
2050;DHT22;8478;49.208;8.806;2023-08-24T08:16:55;21.40;99.90
2050;DHT22;8478;49.208;8.806;2023-08-24T08:19:21;21.40;99.90
2050;DHT22;8478;49.208;8.806;2023-08-24T08:21:47;21.40;99.90
2050;DHT22;8478;49.208;8.806;2023-08-24T08:24:13;21.40;99.90
2050;DHT22;8478;49.208;8.806;2023-08-24T08:26:39;21.40;99.90
2050;DHT22;8478;49.208;8.806;2023-08-24T08:29:04;21.40;99.90
2050;DHT22;8478;49.208;8.806;2023-08-24T08:31:31;21.40;99.90
2050;DHT22;8478;49.208;8.806;2023-08-24T08:33:56;21.40;99.90
2050;DHT22;8478;49.208;8.806;2023-08-24T08:36:22;21.40;99.90
2050;DHT22;8478;49.208;8.806;2023-08-24T08:38:48;21.40;99.90
2050;DHT22;8478;49.208;8.806;2023-08-24T08:41:17;21.40;99.90
2050;DHT22;8478;49.208;8.806;2023-08-24T08:43:47;21.40;99.90
2050;DHT22;8478;49.208;8.806;2023-08-24T08:46:14;21.40;99.90
2050;DHT22;8478;49.208;8.806;2023-08-24T08:48:42;21.40;99.90
2050;DHT22;8478;49.208;8.806;2023-08-24T08:51:09;21.40;99.90
2050;DHT22;8478;49.208;8.806;2023-08-24T08:53:36;21.40;99.90
2050;DHT22;8478;49.208;8.806;2023-08-24T08:56:03;21.40;99.90
2050;DHT22;8478;49.208;8.806;2023-08-24T08:58:31;21.50;99.90
2050;DHT22;8478;49.208;8.806;2023-08-24T09:00:57;21.50;99.90
2050;DHT22;8478;49.208;8.806;2023-08-24T09:03:26;21.50;99.90
2050;DHT22;8478;49.208;8.806;2023-08-24T09:05:53;21.40;99.90
2050;DHT22;8478;49.208;8.806;2023-08-24T09:08:19;21.50;99.90
2050;DHT22;8478;49.208;8.806;2023-08-24T09:10:45;21.50;99.90
2050;DHT22;8478;49.208;8.806;2023-08-24T09:13:11;21.50;99.90
2050;DHT22;8478;49.208;8.806;2023-08-24T09:15:38;21.50;99.90
2050;DHT22;8478;49.208;8.806;2023-08-24T09:18:04;21.50;99.90
2050;DHT22;8478;49.208;8.806;2023-08-24T09:20:30;21.50;99.90
2050;DHT22;8478;49.208;8.806;2023-08-24T09:22:56;21.50;99.90
2050;DHT22;8478;49.208;8.806;2023-08-24T09:25:24;21.50;99.90
2050;DHT22;8478;49.208;8.806;2023-08-24T09:28:03;21.50;99.90
2050;DHT22;8478;49.208;8.806;2023-08-24T09:30:35;21.50;99.90
2050;DHT22;8478;49.208;8.806;2023-08-24T09:33:10;21.50;99.90
2050;DHT22;8478;49.208;8.806;2023-08-24T09:35:37;21.50;99.90
2050;DHT22;8478;49.208;8.806;2023-08-24T09:38:18;21.50;99.90
2050;DHT22;8478;49.208;8.806;2023-08-24T09:40:45;21.50;99.90
2050;DHT22;8478;49.208;8.806;2023-08-24T09:43:13;21.50;99.90
2050;DHT22;8478;49.208;8.806;2023-08-24T09:45:51;21.50;99.90
2050;DHT22;8478;49.208;8.806;2023-08-24T09:48:17;21.50;99.90
2050;DHT22;8478;49.208;8.806;2023-08-24T09:50:45;21.50;99.90
2050;DHT22;8478;49.208;8.806;2023-08-24T09:53:16;21.50;99.90
2050;DHT22;8478;49.208;8.806;2023-08-24T09:55:54;21.50;99.90
2050;DHT22;8478;49.208;8.806;2023-08-24T09:58:22;21.50;99.90
2050;DHT22;8478;49.208;8.806;2023-08-24T10:00:49;21.60;99.90
2050;DHT22;8478;49.208;8.806;2023-08-24T10:03:17;21.60;99.90
2050;DHT22;8478;49.208;8.806;2023-08-24T10:05:49;21.60;99.90
2050;DHT22;8478;49.208;8.806;2023-08-24T10:08:18;21.60;99.90
2050;DHT22;8478;49.208;8.806;2023-08-24T10:10:44;21.60;99.90
2050;DHT22;8478;49.208;8.806;2023-08-24T10:13:18;21.60;99.90
2050;DHT22;8478;49.208;8.806;2023-08-24T10:15:48;21.60;99.90
2050;DHT22;8478;49.208;8.806;2023-08-24T10:18:15;21.60;99.90
2050;DHT22;8478;49.208;8.806;2023-08-24T10:20:42;21.60;99.90
2050;DHT22;8478;49.208;8.806;2023-08-24T10:23:11;21.60;99.90
2050;DHT22;8478;49.208;8.806;2023-08-24T10:25:38;21.60;99.90
2050;DHT22;8478;49.208;8.806;2023-08-24T10:28:05;21.60;99.90
2050;DHT22;8478;49.208;8.806;2023-08-24T10:30:34;21.60;99.90
2050;DHT22;8478;49.208;8.806;2023-08-24T10:33:00;21.60;99.90
2050;DHT22;8478;49.208;8.806;2023-08-24T10:35:26;21.60;99.90
2050;DHT22;8478;49.208;8.806;2023-08-24T10:37:53;21.60;99.90
2050;DHT22;8478;49.208;8.806;2023-08-24T10:42:58;21.60;99.90
2050;DHT22;8478;49.208;8.806;2023-08-24T10:45:25;21.60;99.90
2050;DHT22;8478;49.208;8.806;2023-08-24T10:47:52;21.60;99.90
2050;DHT22;8478;49.208;8.806;2023-08-24T10:50:19;21.60;99.90
2050;DHT22;8478;49.208;8.806;2023-08-24T10:52:45;21.60;99.90
2050;DHT22;8478;49.208;8.806;2023-08-24T10:55:27;21.60;99.90
2050;DHT22;8478;49.208;8.806;2023-08-24T10:57:57;21.70;99.90
2050;DHT22;8478;49.208;8.806;2023-08-24T11:00:29;21.70;99.90
2050;DHT22;8478;49.208;8.806;2023-08-24T11:02:56;21.70;99.90
2050;DHT22;8478;49.208;8.806;2023-08-24T11:05:23;21.70;99.90
2050;DHT22;8478;49.208;8.806;2023-08-24T11:08:01;21.70;99.90
2050;DHT22;8478;49.208;8.806;2023-08-24T11:10:45;21.70;99.90
2050;DHT22;8478;49.208;8.806;2023-08-24T11:13:18;21.70;99.90
2050;DHT22;8478;49.208;8.806;2023-08-24T11:15:49;21.70;99.90
2050;DHT22;8478;49.208;8.806;2023-08-24T11:18:24;21.70;99.90
2050;DHT22;8478;49.208;8.806;2023-08-24T11:21:04;21.70;99.90
2050;DHT22;8478;49.208;8.806;2023-08-24T11:23:31;21.70;99.90
2050;DHT22;8478;49.208;8.806;2023-08-24T11:25:58;21.80;99.90
2050;DHT22;8478;49.208;8.806;2023-08-24T11:28:26;21.80;99.90
2050;DHT22;8478;49.208;8.806;2023-08-24T11:30:52;21.80;99.90
2050;DHT22;8478;49.208;8.806;2023-08-24T11:33:29;21.80;99.90
2050;DHT22;8478;49.208;8.806;2023-08-24T11:35:56;21.80;99.90
2050;DHT22;8478;49.208;8.806;2023-08-24T11:38:21;21.80;99.90
2050;DHT22;8478;49.208;8.806;2023-08-24T11:40:47;21.80;99.90
2050;DHT22;8478;49.208;8.806;2023-08-24T11:43:21;21.80;99.90
2050;DHT22;8478;49.208;8.806;2023-08-24T11:45:47;21.80;99.90
2050;DHT22;8478;49.208;8.806;2023-08-24T11:48:14;21.80;99.90
2050;DHT22;8478;49.208;8.806;2023-08-24T11:50:40;21.80;99.90
2050;DHT22;8478;49.208;8.806;2023-08-24T11:53:07;21.80;99.90
2050;DHT22;8478;49.208;8.806;2023-08-24T11:55:32;21.90;99.90
2050;DHT22;8478;49.208;8.806;2023-08-24T11:57:59;21.90;99.90
2050;DHT22;8478;49.208;8.806;2023-08-24T12:00:25;21.90;99.90
2050;DHT22;8478;49.208;8.806;2023-08-24T12:02:52;21.90;99.90
2050;DHT22;8478;49.208;8.806;2023-08-24T12:05:26;21.90;99.90
2050;DHT22;8478;49.208;8.806;2023-08-24T12:07:53;21.90;99.90
2050;DHT22;8478;49.208;8.806;2023-08-24T12:10:20;21.90;99.90
2050;DHT22;8478;49.208;8.806;2023-08-24T12:12:46;21.90;99.90
2050;DHT22;8478;49.208;8.806;2023-08-24T12:15:19;21.90;99.90
2050;DHT22;8478;49.208;8.806;2023-08-24T12:17:48;21.90;99.90
2050;DHT22;8478;49.208;8.806;2023-08-24T12:20:21;21.90;99.90
2050;DHT22;8478;49.208;8.806;2023-08-24T12:22:56;21.90;99.90
2050;DHT22;8478;49.208;8.806;2023-08-24T12:25:24;21.90;99.90
2050;DHT22;8478;49.208;8.806;2023-08-24T12:27:51;21.90;99.90
2050;DHT22;8478;49.208;8.806;2023-08-24T12:30:21;21.90;99.90
2050;DHT22;8478;49.208;8.806;2023-08-24T12:32:48;22.00;99.90
2050;DHT22;8478;49.208;8.806;2023-08-24T12:35:16;22.00;99.90
2050;DHT22;8478;49.208;8.806;2023-08-24T12:37:42;22.00;99.90
2050;DHT22;8478;49.208;8.806;2023-08-24T12:40:08;22.00;99.90
2050;DHT22;8478;49.208;8.806;2023-08-24T12:42:34;22.00;99.90
2050;DHT22;8478;49.208;8.806;2023-08-24T12:44:59;22.00;99.90
2050;DHT22;8478;49.208;8.806;2023-08-24T12:47:25;22.00;99.90
2050;DHT22;8478;49.208;8.806;2023-08-24T12:49:51;22.00;99.90
2050;DHT22;8478;49.208;8.806;2023-08-24T12:52:18;22.00;99.90
2050;DHT22;8478;49.208;8.806;2023-08-24T12:54:44;22.00;99.90
2050;DHT22;8478;49.208;8.806;2023-08-24T12:57:10;22.00;99.90
2050;DHT22;8478;49.208;8.806;2023-08-24T12:59:35;22.00;99.90
2050;DHT22;8478;49.208;8.806;2023-08-24T13:02:01;22.00;99.90
2050;DHT22;8478;49.208;8.806;2023-08-24T13:04:26;22.00;99.90
2050;DHT22;8478;49.208;8.806;2023-08-24T13:06:55;22.10;99.90
2050;DHT22;8478;49.208;8.806;2023-08-24T13:09:20;22.10;99.90
2050;DHT22;8478;49.208;8.806;2023-08-24T13:11:48;22.10;99.90
2050;DHT22;8478;49.208;8.806;2023-08-24T13:14:14;22.00;99.90
2050;DHT22;8478;49.208;8.806;2023-08-24T13:16:39;22.10;99.90
2050;DHT22;8478;49.208;8.806;2023-08-24T13:19:05;22.10;99.90
2050;DHT22;8478;49.208;8.806;2023-08-24T13:21:31;22.10;99.90
2050;DHT22;8478;49.208;8.806;2023-08-24T13:23:56;22.10;99.90
2050;DHT22;8478;49.208;8.806;2023-08-24T13:26:22;22.10;99.90
2050;DHT22;8478;49.208;8.806;2023-08-24T13:28:49;22.10;99.90
2050;DHT22;8478;49.208;8.806;2023-08-24T13:31:15;22.10;99.90
2050;DHT22;8478;49.208;8.806;2023-08-24T13:33:40;22.10;99.90
2050;DHT22;8478;49.208;8.806;2023-08-24T13:36:06;22.10;99.90
2050;DHT22;8478;49.208;8.806;2023-08-24T13:38:31;22.20;99.90
2050;DHT22;8478;49.208;8.806;2023-08-24T13:40:57;22.10;99.90
2050;DHT22;8478;49.208;8.806;2023-08-24T13:43:23;22.20;99.90
2050;DHT22;8478;49.208;8.806;2023-08-24T13:45:48;22.20;99.90
2050;DHT22;8478;49.208;8.806;2023-08-24T13:48:14;22.20;99.90
2050;DHT22;8478;49.208;8.806;2023-08-24T13:50:52;22.20;99.90
2050;DHT22;8478;49.208;8.806;2023-08-24T13:53:18;22.20;99.90
2050;DHT22;8478;49.208;8.806;2023-08-24T13:55:44;22.20;99.90
2050;DHT22;8478;49.208;8.806;2023-08-24T13:58:10;22.20;99.90
2050;DHT22;8478;49.208;8.806;2023-08-24T14:00:36;22.20;99.90
2050;DHT22;8478;49.208;8.806;2023-08-24T14:03:03;22.20;99.90
2050;DHT22;8478;49.208;8.806;2023-08-24T14:05:28;22.20;99.90
2050;DHT22;8478;49.208;8.806;2023-08-24T14:07:54;22.20;99.90
2050;DHT22;8478;49.208;8.806;2023-08-24T14:10:20;22.30;99.90
2050;DHT22;8478;49.208;8.806;2023-08-24T14:12:46;22.20;99.90
2050;DHT22;8478;49.208;8.806;2023-08-24T14:15:12;22.30;99.90
2050;DHT22;8478;49.208;8.806;2023-08-24T14:17:37;22.20;99.90
2050;DHT22;8478;49.208;8.806;2023-08-24T14:20:03;22.30;99.90
2050;DHT22;8478;49.208;8.806;2023-08-24T14:22:34;22.30;99.90
2050;DHT22;8478;49.208;8.806;2023-08-24T14:25:00;22.30;99.90
2050;DHT22;8478;49.208;8.806;2023-08-24T14:27:26;22.30;99.90
2050;DHT22;8478;49.208;8.806;2023-08-24T14:29:51;22.30;99.90
2050;DHT22;8478;49.208;8.806;2023-08-24T14:32:17;22.30;99.90
2050;DHT22;8478;49.208;8.806;2023-08-24T14:34:43;22.30;99.90
2050;DHT22;8478;49.208;8.806;2023-08-24T14:37:08;22.30;99.90
2050;DHT22;8478;49.208;8.806;2023-08-24T14:39:34;22.30;99.90
2050;DHT22;8478;49.208;8.806;2023-08-24T14:42:00;22.30;99.90
2050;DHT22;8478;49.208;8.806;2023-08-24T14:44:28;22.30;99.90
2050;DHT22;8478;49.208;8.806;2023-08-24T14:46:54;22.30;99.90
2050;DHT22;8478;49.208;8.806;2023-08-24T14:49:19;22.40;99.90
2050;DHT22;8478;49.208;8.806;2023-08-24T14:51:45;22.30;99.90
2050;DHT22;8478;49.208;8.806;2023-08-24T14:54:11;22.30;99.90
2050;DHT22;8478;49.208;8.806;2023-08-24T14:56:40;22.40;99.90
2050;DHT22;8478;49.208;8.806;2023-08-24T14:59:06;22.30;99.90
2050;DHT22;8478;49.208;8.806;2023-08-24T15:01:31;22.30;99.90
2050;DHT22;8478;49.208;8.806;2023-08-24T15:03:57;22.40;99.90
2050;DHT22;8478;49.208;8.806;2023-08-24T15:06:23;22.30;99.90
2050;DHT22;8478;49.208;8.806;2023-08-24T15:08:49;22.40;99.90
2050;DHT22;8478;49.208;8.806;2023-08-24T15:11:15;22.30;99.90
2050;DHT22;8478;49.208;8.806;2023-08-24T15:13:41;22.30;99.90
2050;DHT22;8478;49.208;8.806;2023-08-24T15:16:07;22.30;99.90
2050;DHT22;8478;49.208;8.806;2023-08-24T15:18:34;22.30;99.90
2050;DHT22;8478;49.208;8.806;2023-08-24T15:21:00;22.30;99.90
2050;DHT22;8478;49.208;8.806;2023-08-24T15:23:31;22.30;99.90
2050;DHT22;8478;49.208;8.806;2023-08-24T15:25:58;22.30;99.90
2050;DHT22;8478;49.208;8.806;2023-08-24T15:28:25;22.40;99.90
2050;DHT22;8478;49.208;8.806;2023-08-24T15:30:51;22.30;99.90
2050;DHT22;8478;49.208;8.806;2023-08-24T15:33:20;22.30;99.90
2050;DHT22;8478;49.208;8.806;2023-08-24T15:35:46;22.40;99.90
2050;DHT22;8478;49.208;8.806;2023-08-24T15:38:12;22.40;99.90
2050;DHT22;8478;49.208;8.806;2023-08-24T15:40:38;22.30;99.90
2050;DHT22;8478;49.208;8.806;2023-08-24T15:43:05;22.30;99.90
2050;DHT22;8478;49.208;8.806;2023-08-24T15:45:31;22.30;99.90
2050;DHT22;8478;49.208;8.806;2023-08-24T15:47:58;22.30;99.90
2050;DHT22;8478;49.208;8.806;2023-08-24T15:50:24;22.30;99.90
2050;DHT22;8478;49.208;8.806;2023-08-24T15:52:49;22.30;99.90
2050;DHT22;8478;49.208;8.806;2023-08-24T15:55:15;22.30;99.90
2050;DHT22;8478;49.208;8.806;2023-08-24T15:57:41;22.30;99.90
2050;DHT22;8478;49.208;8.806;2023-08-24T16:00:07;22.30;99.90
2050;DHT22;8478;49.208;8.806;2023-08-24T16:02:39;22.30;99.90